sensor_id;sensor_type;location;lat;lon;timestamp;P1;durP1;ratioP1;P2;durP2;ratioP2
7969;SDS011;4030;52.362;9.206;2023-06-05T00:02:00;3.08;;;1.90;;
7969;SDS011;4030;52.362;9.206;2023-06-05T00:04:26;2.90;;;1.80;;
7969;SDS011;4030;52.362;9.206;2023-06-05T00:06:52;2.80;;;1.88;;
7969;SDS011;4030;52.362;9.206;2023-06-05T00:09:18;2.55;;;1.60;;
7969;SDS011;4030;52.362;9.206;2023-06-05T00:11:44;3.17;;;1.70;;
7969;SDS011;4030;52.362;9.206;2023-06-05T00:14:10;2.58;;;1.63;;
7969;SDS011;4030;52.362;9.206;2023-06-05T00:16:36;2.70;;;1.88;;
7969;SDS011;4030;52.362;9.206;2023-06-05T00:19:02;2.97;;;1.95;;
7969;SDS011;4030;52.362;9.206;2023-06-05T00:21:28;2.47;;;1.73;;
7969;SDS011;4030;52.362;9.206;2023-06-05T00:23:54;3.80;;;1.80;;
7969;SDS011;4030;52.362;9.206;2023-06-05T00:26:20;2.58;;;1.73;;
7969;SDS011;4030;52.362;9.206;2023-06-05T00:28:46;4.55;;;2.00;;
7969;SDS011;4030;52.362;9.206;2023-06-05T00:31:12;3.67;;;2.00;;
7969;SDS011;4030;52.362;9.206;2023-06-05T00:33:38;2.10;;;1.80;;
7969;SDS011;4030;52.362;9.206;2023-06-05T00:36:05;3.20;;;2.05;;
7969;SDS011;4030;52.362;9.206;2023-06-05T00:38:31;2.28;;;1.60;;
7969;SDS011;4030;52.362;9.206;2023-06-05T00:40:57;2.38;;;1.67;;
7969;SDS011;4030;52.362;9.206;2023-06-05T00:43:23;2.95;;;1.90;;
7969;SDS011;4030;52.362;9.206;2023-06-05T00:45:48;2.40;;;1.80;;
7969;SDS011;4030;52.362;9.206;2023-06-05T00:48:19;3.45;;;2.00;;
7969;SDS011;4030;52.362;9.206;2023-06-05T00:50:45;3.20;;;1.85;;
7969;SDS011;4030;52.362;9.206;2023-06-05T00:53:11;3.85;;;2.10;;
7969;SDS011;4030;52.362;9.206;2023-06-05T00:55:37;3.20;;;1.90;;
7969;SDS011;4030;52.362;9.206;2023-06-05T00:58:03;2.85;;;2.10;;
7969;SDS011;4030;52.362;9.206;2023-06-05T01:00:29;3.38;;;2.00;;
7969;SDS011;4030;52.362;9.206;2023-06-05T01:02:55;2.75;;;1.85;;
7969;SDS011;4030;52.362;9.206;2023-06-05T01:05:23;3.38;;;2.10;;
7969;SDS011;4030;52.362;9.206;2023-06-05T01:07:49;2.40;;;1.77;;
7969;SDS011;4030;52.362;9.206;2023-06-05T01:10:15;2.65;;;1.80;;
7969;SDS011;4030;52.362;9.206;2023-06-05T01:15:27;3.55;;;2.00;;
7969;SDS011;4030;52.362;9.206;2023-06-05T01:17:57;3.00;;;1.90;;
7969;SDS011;4030;52.362;9.206;2023-06-05T01:20:33;3.17;;;2.10;;
7969;SDS011;4030;52.362;9.206;2023-06-05T01:23:02;3.13;;;1.95;;
7969;SDS011;4030;52.362;9.206;2023-06-05T01:25:29;3.47;;;2.03;;
7969;SDS011;4030;52.362;9.206;2023-06-05T01:28:00;4.20;;;1.85;;
7969;SDS011;4030;52.362;9.206;2023-06-05T01:33:43;3.47;;;1.73;;
7969;SDS011;4030;52.362;9.206;2023-06-05T01:36:21;3.38;;;2.00;;
7969;SDS011;4030;52.362;9.206;2023-06-05T01:38:48;2.63;;;1.88;;
7969;SDS011;4030;52.362;9.206;2023-06-05T01:41:15;3.50;;;2.00;;
7969;SDS011;4030;52.362;9.206;2023-06-05T01:43:42;2.55;;;1.80;;
7969;SDS011;4030;52.362;9.206;2023-06-05T01:46:12;2.42;;;1.83;;
7969;SDS011;4030;52.362;9.206;2023-06-05T01:48:40;2.88;;;1.90;;
7969;SDS011;4030;52.362;9.206;2023-06-05T01:51:07;2.25;;;1.80;;
7969;SDS011;4030;52.362;9.206;2023-06-05T01:53:33;3.03;;;1.92;;
7969;SDS011;4030;52.362;9.206;2023-06-05T01:55:59;2.40;;;1.67;;
7969;SDS011;4030;52.362;9.206;2023-06-05T01:58:25;3.33;;;2.00;;
7969;SDS011;4030;52.362;9.206;2023-06-05T02:00:51;2.70;;;1.73;;
7969;SDS011;4030;52.362;9.206;2023-06-05T02:03:18;2.85;;;2.05;;
7969;SDS011;4030;52.362;9.206;2023-06-05T02:05:45;2.05;;;1.80;;
7969;SDS011;4030;52.362;9.206;2023-06-05T02:08:11;3.28;;;2.10;;
7969;SDS011;4030;52.362;9.206;2023-06-05T02:10:38;2.70;;;2.13;;
7969;SDS011;4030;52.362;9.206;2023-06-05T02:13:09;2.70;;;1.77;;
7969;SDS011;4030;52.362;9.206;2023-06-05T02:15:35;3.17;;;2.20;;
7969;SDS011;4030;52.362;9.206;2023-06-05T02:18:02;2.78;;;2.17;;
7969;SDS011;4030;52.362;9.206;2023-06-05T02:20:29;2.45;;;1.98;;
7969;SDS011;4030;52.362;9.206;2023-06-05T02:22:56;3.20;;;2.30;;
7969;SDS011;4030;52.362;9.206;2023-06-05T02:25:22;2.75;;;1.70;;
7969;SDS011;4030;52.362;9.206;2023-06-05T02:27:51;2.88;;;1.88;;
7969;SDS011;4030;52.362;9.206;2023-06-05T02:30:18;2.70;;;2.08;;
7969;SDS011;4030;52.362;9.206;2023-06-05T02:32:45;3.13;;;2.00;;
7969;SDS011;4030;52.362;9.206;2023-06-05T02:35:11;2.17;;;1.80;;
7969;SDS011;4030;52.362;9.206;2023-06-05T02:37:37;3.60;;;2.08;;
7969;SDS011;4030;52.362;9.206;2023-06-05T02:40:12;2.83;;;1.90;;
7969;SDS011;4030;52.362;9.206;2023-06-05T02:42:38;3.08;;;1.92;;
7969;SDS011;4030;52.362;9.206;2023-06-05T02:45:05;2.40;;;1.95;;
7969;SDS011;4030;52.362;9.206;2023-06-05T02:47:33;3.35;;;2.00;;
7969;SDS011;4030;52.362;9.206;2023-06-05T02:49:59;3.05;;;2.17;;
7969;SDS011;4030;52.362;9.206;2023-06-05T02:52:26;3.38;;;2.20;;
7969;SDS011;4030;52.362;9.206;2023-06-05T02:54:53;3.88;;;2.00;;
7969;SDS011;4030;52.362;9.206;2023-06-05T02:57:18;3.63;;;2.33;;
7969;SDS011;4030;52.362;9.206;2023-06-05T02:59:44;3.25;;;2.00;;
7969;SDS011;4030;52.362;9.206;2023-06-05T03:02:10;3.00;;;1.83;;
7969;SDS011;4030;52.362;9.206;2023-06-05T03:04:36;2.60;;;2.05;;
7969;SDS011;4030;52.362;9.206;2023-06-05T03:07:04;2.28;;;1.85;;
7969;SDS011;4030;52.362;9.206;2023-06-05T03:09:30;3.10;;;1.90;;
7969;SDS011;4030;52.362;9.206;2023-06-05T03:11:56;3.83;;;2.22;;
7969;SDS011;4030;52.362;9.206;2023-06-05T03:14:23;2.88;;;2.05;;
7969;SDS011;4030;52.362;9.206;2023-06-05T03:16:49;3.08;;;2.28;;
7969;SDS011;4030;52.362;9.206;2023-06-05T03:19:15;3.13;;;2.20;;
7969;SDS011;4030;52.362;9.206;2023-06-05T03:21:41;4.20;;;2.20;;
7969;SDS011;4030;52.362;9.206;2023-06-05T03:24:08;3.97;;;2.20;;
7969;SDS011;4030;52.362;9.206;2023-06-05T03:26:37;2.60;;;2.00;;
7969;SDS011;4030;52.362;9.206;2023-06-05T03:29:04;2.40;;;1.88;;
7969;SDS011;4030;52.362;9.206;2023-06-05T03:31:30;2.75;;;2.13;;
7969;SDS011;4030;52.362;9.206;2023-06-05T03:33:56;3.10;;;1.90;;
7969;SDS011;4030;52.362;9.206;2023-06-05T03:36:23;2.67;;;2.00;;
7969;SDS011;4030;52.362;9.206;2023-06-05T03:38:49;2.95;;;2.20;;
7969;SDS011;4030;52.362;9.206;2023-06-05T03:41:14;3.55;;;2.20;;
7969;SDS011;4030;52.362;9.206;2023-06-05T03:43:40;2.30;;;2.00;;
7969;SDS011;4030;52.362;9.206;2023-06-05T03:46:06;3.22;;;2.20;;
7969;SDS011;4030;52.362;9.206;2023-06-05T03:48:32;2.70;;;1.88;;
7969;SDS011;4030;52.362;9.206;2023-06-05T03:50:57;3.25;;;2.13;;
7969;SDS011;4030;52.362;9.206;2023-06-05T03:53:25;2.80;;;2.10;;
7969;SDS011;4030;52.362;9.206;2023-06-05T03:55:54;2.65;;;2.00;;
7969;SDS011;4030;52.362;9.206;2023-06-05T03:58:21;3.10;;;2.20;;
7969;SDS011;4030;52.362;9.206;2023-06-05T04:00:48;2.88;;;2.05;;
7969;SDS011;4030;52.362;9.206;2023-06-05T04:03:17;2.60;;;2.25;;
7969;SDS011;4030;52.362;9.206;2023-06-05T04:05:43;3.33;;;2.47;;
7969;SDS011;4030;52.362;9.206;2023-06-05T04:08:09;2.58;;;2.30;;
7969;SDS011;4030;52.362;9.206;2023-06-05T04:10:35;2.85;;;2.30;;
7969;SDS011;4030;52.362;9.206;2023-06-05T04:13:01;2.40;;;2.10;;
7969;SDS011;4030;52.362;9.206;2023-06-05T04:15:28;3.33;;;2.03;;
7969;SDS011;4030;52.362;9.206;2023-06-05T04:17:54;3.80;;;2.20;;
7969;SDS011;4030;52.362;9.206;2023-06-05T04:20:20;3.13;;;2.10;;
7969;SDS011;4030;52.362;9.206;2023-06-05T04:22:46;3.22;;;2.30;;
7969;SDS011;4030;52.362;9.206;2023-06-05T04:25:12;3.00;;;2.60;;
7969;SDS011;4030;52.362;9.206;2023-06-05T04:27:39;2.83;;;2.08;;
7969;SDS011;4030;52.362;9.206;2023-06-05T04:30:09;3.28;;;2.10;;
7969;SDS011;4030;52.362;9.206;2023-06-05T04:32:37;2.50;;;2.30;;
7969;SDS011;4030;52.362;9.206;2023-06-05T04:35:05;2.85;;;2.20;;
7969;SDS011;4030;52.362;9.206;2023-06-05T04:37:33;2.33;;;2.13;;
7969;SDS011;4030;52.362;9.206;2023-06-05T04:40:03;2.60;;;2.13;;
7969;SDS011;4030;52.362;9.206;2023-06-05T04:42:34;2.65;;;2.17;;
7969;SDS011;4030;52.362;9.206;2023-06-05T04:45:02;2.38;;;2.10;;
7969;SDS011;4030;52.362;9.206;2023-06-05T04:47:30;3.85;;;2.25;;
7969;SDS011;4030;52.362;9.206;2023-06-05T04:50:00;2.78;;;2.15;;
7969;SDS011;4030;52.362;9.206;2023-06-05T04:52:29;2.63;;;2.15;;
7969;SDS011;4030;52.362;9.206;2023-06-05T04:54:56;3.63;;;2.20;;
7969;SDS011;4030;52.362;9.206;2023-06-05T04:57:22;4.18;;;2.50;;
7969;SDS011;4030;52.362;9.206;2023-06-05T04:59:51;4.15;;;2.60;;
7969;SDS011;4030;52.362;9.206;2023-06-05T05:02:17;3.10;;;2.50;;
7969;SDS011;4030;52.362;9.206;2023-06-05T05:04:42;3.10;;;2.42;;
7969;SDS011;4030;52.362;9.206;2023-06-05T05:07:08;2.92;;;2.30;;
7969;SDS011;4030;52.362;9.206;2023-06-05T05:09:40;3.45;;;2.33;;
7969;SDS011;4030;52.362;9.206;2023-06-05T05:12:06;3.10;;;2.30;;
7969;SDS011;4030;52.362;9.206;2023-06-05T05:14:33;3.67;;;2.40;;
7969;SDS011;4030;52.362;9.206;2023-06-05T05:16:58;3.45;;;2.50;;
7969;SDS011;4030;52.362;9.206;2023-06-05T05:19:26;4.15;;;2.42;;
7969;SDS011;4030;52.362;9.206;2023-06-05T05:21:52;3.15;;;2.17;;
7969;SDS011;4030;52.362;9.206;2023-06-05T05:24:17;3.53;;;2.50;;
7969;SDS011;4030;52.362;9.206;2023-06-05T05:26:43;3.05;;;2.28;;
7969;SDS011;4030;52.362;9.206;2023-06-05T05:29:09;3.80;;;2.42;;
7969;SDS011;4030;52.362;9.206;2023-06-05T05:31:34;2.90;;;2.60;;
7969;SDS011;4030;52.362;9.206;2023-06-05T05:34:00;4.47;;;2.90;;
7969;SDS011;4030;52.362;9.206;2023-06-05T05:36:26;3.03;;;2.40;;
7969;SDS011;4030;52.362;9.206;2023-06-05T05:38:52;6.13;;;2.92;;
7969;SDS011;4030;52.362;9.206;2023-06-05T05:41:19;5.95;;;2.55;;
7969;SDS011;4030;52.362;9.206;2023-06-05T05:43:46;4.70;;;2.70;;
7969;SDS011;4030;52.362;9.206;2023-06-05T05:46:12;3.50;;;2.58;;
7969;SDS011;4030;52.362;9.206;2023-06-05T05:48:38;4.57;;;2.75;;
7969;SDS011;4030;52.362;9.206;2023-06-05T05:51:05;3.78;;;2.58;;
7969;SDS011;4030;52.362;9.206;2023-06-05T05:53:32;3.92;;;2.72;;
7969;SDS011;4030;52.362;9.206;2023-06-05T05:55:57;3.40;;;2.40;;
7969;SDS011;4030;52.362;9.206;2023-06-05T05:58:24;4.00;;;2.40;;
7969;SDS011;4030;52.362;9.206;2023-06-05T06:00:53;2.95;;;2.28;;
7969;SDS011;4030;52.362;9.206;2023-06-05T06:03:20;3.40;;;2.50;;
7969;SDS011;4030;52.362;9.206;2023-06-05T06:05:46;3.72;;;2.70;;
7969;SDS011;4030;52.362;9.206;2023-06-05T06:08:12;4.70;;;3.10;;
7969;SDS011;4030;52.362;9.206;2023-06-05T06:10:37;4.63;;;2.80;;
7969;SDS011;4030;52.362;9.206;2023-06-05T06:13:03;3.25;;;2.63;;
7969;SDS011;4030;52.362;9.206;2023-06-05T06:15:29;5.07;;;2.72;;
7969;SDS011;4030;52.362;9.206;2023-06-05T06:17:56;3.58;;;2.65;;
7969;SDS011;4030;52.362;9.206;2023-06-05T06:20:22;4.30;;;2.70;;
7969;SDS011;4030;52.362;9.206;2023-06-05T06:22:48;4.28;;;2.70;;
7969;SDS011;4030;52.362;9.206;2023-06-05T06:25:14;5.03;;;2.92;;
7969;SDS011;4030;52.362;9.206;2023-06-05T06:27:42;3.88;;;2.78;;
7969;SDS011;4030;52.362;9.206;2023-06-05T06:30:10;4.78;;;2.35;;
7969;SDS011;4030;52.362;9.206;2023-06-05T06:32:37;3.67;;;2.67;;
7969;SDS011;4030;52.362;9.206;2023-06-05T06:35:02;4.63;;;2.80;;
7969;SDS011;4030;52.362;9.206;2023-06-05T06:37:31;3.55;;;2.50;;
7969;SDS011;4030;52.362;9.206;2023-06-05T06:39:56;3.55;;;2.80;;
7969;SDS011;4030;52.362;9.206;2023-06-05T06:42:22;4.78;;;2.50;;
7969;SDS011;4030;52.362;9.206;2023-06-05T06:44:48;4.53;;;2.90;;
7969;SDS011;4030;52.362;9.206;2023-06-05T06:47:13;3.38;;;2.60;;
7969;SDS011;4030;52.362;9.206;2023-06-05T06:49:39;2.53;;;2.20;;
7969;SDS011;4030;52.362;9.206;2023-06-05T06:52:05;4.00;;;2.53;;
7969;SDS011;4030;52.362;9.206;2023-06-05T06:54:31;3.53;;;2.50;;
7969;SDS011;4030;52.362;9.206;2023-06-05T06:56:57;4.75;;;2.40;;
7969;SDS011;4030;52.362;9.206;2023-06-05T06:59:24;4.47;;;2.50;;
7969;SDS011;4030;52.362;9.206;2023-06-05T07:02:12;3.53;;;2.42;;
7969;SDS011;4030;52.362;9.206;2023-06-05T07:04:43;3.65;;;2.35;;
7969;SDS011;4030;52.362;9.206;2023-06-05T07:07:10;4.63;;;2.72;;
7969;SDS011;4030;52.362;9.206;2023-06-05T07:09:39;3.90;;;2.45;;
7969;SDS011;4030;52.362;9.206;2023-06-05T07:12:08;3.13;;;2.20;;
7969;SDS011;4030;52.362;9.206;2023-06-05T07:14:35;4.32;;;2.60;;
7969;SDS011;4030;52.362;9.206;2023-06-05T07:17:01;3.50;;;2.60;;
7969;SDS011;4030;52.362;9.206;2023-06-05T07:19:28;3.45;;;2.60;;
7969;SDS011;4030;52.362;9.206;2023-06-05T07:21:57;3.58;;;2.60;;
7969;SDS011;4030;52.362;9.206;2023-06-05T07:24:25;4.18;;;2.70;;
7969;SDS011;4030;52.362;9.206;2023-06-05T07:26:53;5.38;;;2.92;;
7969;SDS011;4030;52.362;9.206;2023-06-05T07:29:23;5.28;;;2.88;;
7969;SDS011;4030;52.362;9.206;2023-06-05T07:31:53;4.35;;;2.80;;
7969;SDS011;4030;52.362;9.206;2023-06-05T07:34:23;6.50;;;3.13;;
7969;SDS011;4030;52.362;9.206;2023-06-05T07:36:50;4.57;;;2.78;;
7969;SDS011;4030;52.362;9.206;2023-06-05T07:39:17;4.97;;;2.60;;
7969;SDS011;4030;52.362;9.206;2023-06-05T07:41:47;4.40;;;2.80;;
7969;SDS011;4030;52.362;9.206;2023-06-05T07:44:14;5.80;;;2.70;;
7969;SDS011;4030;52.362;9.206;2023-06-05T07:46:42;5.32;;;2.90;;
7969;SDS011;4030;52.362;9.206;2023-06-05T07:49:09;5.13;;;2.80;;
7969;SDS011;4030;52.362;9.206;2023-06-05T07:51:35;5.13;;;2.70;;
7969;SDS011;4030;52.362;9.206;2023-06-05T07:54:08;4.47;;;2.72;;
7969;SDS011;4030;52.362;9.206;2023-06-05T07:56:36;7.28;;;3.25;;
7969;SDS011;4030;52.362;9.206;2023-06-05T07:59:03;4.55;;;2.78;;
7969;SDS011;4030;52.362;9.206;2023-06-05T08:01:30;5.07;;;2.70;;
7969;SDS011;4030;52.362;9.206;2023-06-05T08:04:01;4.15;;;2.55;;
7969;SDS011;4030;52.362;9.206;2023-06-05T08:06:35;3.40;;;2.45;;
7969;SDS011;4030;52.362;9.206;2023-06-05T08:09:03;4.18;;;2.53;;
7969;SDS011;4030;52.362;9.206;2023-06-05T08:11:29;3.08;;;2.20;;
7969;SDS011;4030;52.362;9.206;2023-06-05T08:13:55;3.90;;;2.10;;
7969;SDS011;4030;52.362;9.206;2023-06-05T08:16:21;3.22;;;2.15;;
7969;SDS011;4030;52.362;9.206;2023-06-05T08:18:47;4.07;;;2.38;;
7969;SDS011;4030;52.362;9.206;2023-06-05T08:21:13;3.50;;;2.42;;
7969;SDS011;4030;52.362;9.206;2023-06-05T08:23:38;3.05;;;2.08;;
7969;SDS011;4030;52.362;9.206;2023-06-05T08:26:04;3.17;;;2.22;;
7969;SDS011;4030;52.362;9.206;2023-06-05T08:28:37;3.08;;;2.25;;
7969;SDS011;4030;52.362;9.206;2023-06-05T08:31:04;4.15;;;2.50;;
7969;SDS011;4030;52.362;9.206;2023-06-05T08:33:30;2.88;;;2.20;;
7969;SDS011;4030;52.362;9.206;2023-06-05T08:35:58;4.63;;;2.40;;
7969;SDS011;4030;52.362;9.206;2023-06-05T08:38:23;3.63;;;1.92;;
7969;SDS011;4030;52.362;9.206;2023-06-05T08:40:51;3.88;;;1.88;;
7969;SDS011;4030;52.362;9.206;2023-06-05T08:43:25;6.00;;;2.20;;
7969;SDS011;4030;52.362;9.206;2023-06-05T08:45:51;3.40;;;1.85;;
7969;SDS011;4030;52.362;9.206;2023-06-05T08:48:18;4.88;;;2.35;;
7969;SDS011;4030;52.362;9.206;2023-06-05T08:50:45;4.05;;;1.88;;
7969;SDS011;4030;52.362;9.206;2023-06-05T08:53:13;5.55;;;2.17;;
7969;SDS011;4030;52.362;9.206;2023-06-05T08:55:43;3.78;;;1.88;;
7969;SDS011;4030;52.362;9.206;2023-06-05T08:58:13;5.22;;;2.00;;
7969;SDS011;4030;52.362;9.206;2023-06-05T09:00:39;4.90;;;2.03;;
7969;SDS011;4030;52.362;9.206;2023-06-05T09:03:06;5.78;;;2.05;;
7969;SDS011;4030;52.362;9.206;2023-06-05T09:05:37;3.97;;;2.10;;
7969;SDS011;4030;52.362;9.206;2023-06-05T09:08:03;9.88;;;2.67;;
7969;SDS011;4030;52.362;9.206;2023-06-05T09:10:29;6.28;;;1.88;;
7969;SDS011;4030;52.362;9.206;2023-06-05T09:12:59;3.60;;;1.70;;
7969;SDS011;4030;52.362;9.206;2023-06-05T09:15:28;6.25;;;1.98;;
7969;SDS011;4030;52.362;9.206;2023-06-05T09:20:40;5.63;;;2.15;;
7969;SDS011;4030;52.362;9.206;2023-06-05T09:23:27;10.23;;;2.22;;
7969;SDS011;4030;52.362;9.206;2023-06-05T09:25:57;9.82;;;2.20;;
7969;SDS011;4030;52.362;9.206;2023-06-05T09:28:25;7.70;;;2.17;;
7969;SDS011;4030;52.362;9.206;2023-06-05T09:30:54;5.55;;;2.08;;
7969;SDS011;4030;52.362;9.206;2023-06-05T09:33:26;6.68;;;2.15;;
7969;SDS011;4030;52.362;9.206;2023-06-05T09:36:02;5.13;;;2.03;;
7969;SDS011;4030;52.362;9.206;2023-06-05T09:38:38;5.75;;;2.17;;
7969;SDS011;4030;52.362;9.206;2023-06-05T09:41:07;6.45;;;1.80;;
7969;SDS011;4030;52.362;9.206;2023-06-05T09:43:34;5.10;;;1.90;;
7969;SDS011;4030;52.362;9.206;2023-06-05T09:46:08;7.55;;;2.17;;
7969;SDS011;4030;52.362;9.206;2023-06-05T09:48:41;4.63;;;1.75;;
7969;SDS011;4030;52.362;9.206;2023-06-05T09:51:12;4.20;;;1.77;;
7969;SDS011;4030;52.362;9.206;2023-06-05T09:53:49;2.83;;;1.75;;
7969;SDS011;4030;52.362;9.206;2023-06-05T09:56:20;5.53;;;2.00;;
7969;SDS011;4030;52.362;9.206;2023-06-05T09:58:47;4.90;;;1.75;;
7969;SDS011;4030;52.362;9.206;2023-06-05T10:01:15;3.22;;;1.60;;
7969;SDS011;4030;52.362;9.206;2023-06-05T10:03:48;5.50;;;1.70;;
7969;SDS011;4030;52.362;9.206;2023-06-05T10:06:21;4.55;;;1.80;;
7969;SDS011;4030;52.362;9.206;2023-06-05T10:08:50;5.82;;;1.90;;
7969;SDS011;4030;52.362;9.206;2023-06-05T10:11:18;5.72;;;2.00;;
7969;SDS011;4030;52.362;9.206;2023-06-05T10:13:46;4.30;;;1.92;;
7969;SDS011;4030;52.362;9.206;2023-06-05T10:16:14;2.78;;;1.70;;
7969;SDS011;4030;52.362;9.206;2023-06-05T10:18:41;3.22;;;1.70;;
7969;SDS011;4030;52.362;9.206;2023-06-05T10:21:07;4.10;;;1.95;;
7969;SDS011;4030;52.362;9.206;2023-06-05T10:23:33;5.07;;;1.58;;
7969;SDS011;4030;52.362;9.206;2023-06-05T10:26:00;4.05;;;1.63;;
7969;SDS011;4030;52.362;9.206;2023-06-05T10:28:50;5.03;;;2.00;;
7969;SDS011;4030;52.362;9.206;2023-06-05T10:32:12;6.50;;;2.00;;
7969;SDS011;4030;52.362;9.206;2023-06-05T10:37:47;3.33;;;1.83;;
7969;SDS011;4030;52.362;9.206;2023-06-05T10:40:19;3.38;;;1.73;;
7969;SDS011;4030;52.362;9.206;2023-06-05T10:42:46;2.42;;;1.70;;
7969;SDS011;4030;52.362;9.206;2023-06-05T10:45:12;3.38;;;1.77;;
7969;SDS011;4030;52.362;9.206;2023-06-05T10:47:54;3.75;;;1.60;;
7969;SDS011;4030;52.362;9.206;2023-06-05T10:50:20;4.90;;;1.90;;
7969;SDS011;4030;52.362;9.206;2023-06-05T10:52:47;5.28;;;1.70;;
7969;SDS011;4030;52.362;9.206;2023-06-05T10:55:14;4.22;;;1.77;;
7969;SDS011;4030;52.362;9.206;2023-06-05T11:00:35;4.47;;;1.80;;
7969;SDS011;4030;52.362;9.206;2023-06-05T11:03:03;3.05;;;1.73;;
7969;SDS011;4030;52.362;9.206;2023-06-05T11:05:33;7.43;;;2.08;;
7969;SDS011;4030;52.362;9.206;2023-06-05T11:08:17;2.20;;;1.58;;
7969;SDS011;4030;52.362;9.206;2023-06-05T11:11:03;4.55;;;1.80;;
7969;SDS011;4030;52.362;9.206;2023-06-05T11:16:27;3.53;;;1.70;;
7969;SDS011;4030;52.362;9.206;2023-06-05T11:19:34;3.30;;;1.70;;
7969;SDS011;4030;52.362;9.206;2023-06-05T11:24:32;4.43;;;1.58;;
7969;SDS011;4030;52.362;9.206;2023-06-05T11:26:59;1.60;;;1.40;;
7969;SDS011;4030;52.362;9.206;2023-06-05T11:29:25;3.97;;;1.42;;
7969;SDS011;4030;52.362;9.206;2023-06-05T11:31:51;3.53;;;1.75;;
7969;SDS011;4030;52.362;9.206;2023-06-05T11:34:17;1.80;;;1.40;;
7969;SDS011;4030;52.362;9.206;2023-06-05T11:36:43;2.95;;;1.60;;
7969;SDS011;4030;52.362;9.206;2023-06-05T11:39:15;2.92;;;1.50;;
7969;SDS011;4030;52.362;9.206;2023-06-05T11:41:48;2.63;;;1.50;;
7969;SDS011;4030;52.362;9.206;2023-06-05T11:44:30;2.25;;;1.50;;
7969;SDS011;4030;52.362;9.206;2023-06-05T11:46:57;2.28;;;1.33;;
7969;SDS011;4030;52.362;9.206;2023-06-05T11:49:26;1.63;;;1.30;;
7969;SDS011;4030;52.362;9.206;2023-06-05T11:51:54;3.10;;;1.52;;
7969;SDS011;4030;52.362;9.206;2023-06-05T11:54:30;1.80;;;1.35;;
7969;SDS011;4030;52.362;9.206;2023-06-05T11:57:02;2.55;;;1.30;;
7969;SDS011;4030;52.362;9.206;2023-06-05T11:59:37;2.95;;;1.35;;
7969;SDS011;4030;52.362;9.206;2023-06-05T12:02:04;2.55;;;1.42;;
7969;SDS011;4030;52.362;9.206;2023-06-05T12:04:33;2.72;;;1.42;;
7969;SDS011;4030;52.362;9.206;2023-06-05T12:07:00;3.78;;;1.50;;
7969;SDS011;4030;52.362;9.206;2023-06-05T12:09:27;1.88;;;1.20;;
7969;SDS011;4030;52.362;9.206;2023-06-05T12:12:03;3.65;;;1.40;;
7969;SDS011;4030;52.362;9.206;2023-06-05T12:14:33;3.65;;;1.45;;
7969;SDS011;4030;52.362;9.206;2023-06-05T12:16:59;2.65;;;1.30;;
7969;SDS011;4030;52.362;9.206;2023-06-05T12:19:33;4.97;;;1.40;;
7969;SDS011;4030;52.362;9.206;2023-06-05T12:22:03;1.50;;;1.20;;
7969;SDS011;4030;52.362;9.206;2023-06-05T12:24:31;2.38;;;1.25;;
7969;SDS011;4030;52.362;9.206;2023-06-05T12:26:58;1.70;;;1.20;;
7969;SDS011;4030;52.362;9.206;2023-06-05T12:29:27;3.05;;;1.52;;
7969;SDS011;4030;52.362;9.206;2023-06-05T12:31:59;3.80;;;1.35;;
7969;SDS011;4030;52.362;9.206;2023-06-05T12:34:45;2.22;;;1.45;;
7969;SDS011;4030;52.362;9.206;2023-06-05T12:37:31;3.05;;;1.40;;
7969;SDS011;4030;52.362;9.206;2023-06-05T12:39:59;1.88;;;1.40;;
7969;SDS011;4030;52.362;9.206;2023-06-05T12:42:26;2.03;;;1.27;;
7969;SDS011;4030;52.362;9.206;2023-06-05T12:44:53;1.80;;;1.50;;
7969;SDS011;4030;52.362;9.206;2023-06-05T12:47:19;2.20;;;1.40;;
7969;SDS011;4030;52.362;9.206;2023-06-05T12:49:45;2.05;;;1.40;;
7969;SDS011;4030;52.362;9.206;2023-06-05T12:52:11;4.10;;;1.60;;
7969;SDS011;4030;52.362;9.206;2023-06-05T12:54:37;1.98;;;1.40;;
7969;SDS011;4030;52.362;9.206;2023-06-05T12:57:06;1.98;;;1.40;;
7969;SDS011;4030;52.362;9.206;2023-06-05T12:59:32;2.40;;;1.33;;
7969;SDS011;4030;52.362;9.206;2023-06-05T13:01:59;2.13;;;1.30;;
7969;SDS011;4030;52.362;9.206;2023-06-05T13:04:24;3.40;;;1.40;;
7969;SDS011;4030;52.362;9.206;2023-06-05T13:06:50;1.95;;;1.40;;
7969;SDS011;4030;52.362;9.206;2023-06-05T13:09:16;2.50;;;1.40;;
7969;SDS011;4030;52.362;9.206;2023-06-05T13:11:42;2.28;;;1.27;;
7969;SDS011;4030;52.362;9.206;2023-06-05T13:14:07;3.08;;;1.55;;
7969;SDS011;4030;52.362;9.206;2023-06-05T13:16:33;1.95;;;1.23;;
7969;SDS011;4030;52.362;9.206;2023-06-05T13:18:59;1.10;;;1.00;;
7969;SDS011;4030;52.362;9.206;2023-06-05T13:21:24;1.98;;;1.35;;
7969;SDS011;4030;52.362;9.206;2023-06-05T13:23:51;2.22;;;1.30;;
7969;SDS011;4030;52.362;9.206;2023-06-05T13:26:16;2.78;;;1.15;;
7969;SDS011;4030;52.362;9.206;2023-06-05T13:28:43;2.83;;;1.38;;
7969;SDS011;4030;52.362;9.206;2023-06-05T13:31:09;2.00;;;1.20;;
7969;SDS011;4030;52.362;9.206;2023-06-05T13:33:36;2.35;;;1.30;;
7969;SDS011;4030;52.362;9.206;2023-06-05T13:36:01;2.55;;;1.40;;
7969;SDS011;4030;52.362;9.206;2023-06-05T13:38:27;1.67;;;1.33;;
7969;SDS011;4030;52.362;9.206;2023-06-05T13:40:53;1.50;;;1.10;;
7969;SDS011;4030;52.362;9.206;2023-06-05T13:43:19;1.83;;;1.30;;
7969;SDS011;4030;52.362;9.206;2023-06-05T13:45:45;1.58;;;1.38;;
7969;SDS011;4030;52.362;9.206;2023-06-05T13:48:11;2.28;;;1.35;;
7969;SDS011;4030;52.362;9.206;2023-06-05T13:50:36;1.50;;;1.20;;
7969;SDS011;4030;52.362;9.206;2023-06-05T13:53:02;1.70;;;1.30;;
7969;SDS011;4030;52.362;9.206;2023-06-05T13:55:28;3.75;;;1.30;;
7969;SDS011;4030;52.362;9.206;2023-06-05T13:57:53;1.30;;;1.20;;
7969;SDS011;4030;52.362;9.206;2023-06-05T14:00:25;2.15;;;1.20;;
7969;SDS011;4030;52.362;9.206;2023-06-05T14:02:52;2.20;;;1.33;;
7969;SDS011;4030;52.362;9.206;2023-06-05T14:05:17;2.05;;;1.20;;
7969;SDS011;4030;52.362;9.206;2023-06-05T14:07:43;2.17;;;1.38;;
7969;SDS011;4030;52.362;9.206;2023-06-05T14:10:09;3.33;;;1.30;;
7969;SDS011;4030;52.362;9.206;2023-06-05T14:12:34;1.77;;;1.30;;
7969;SDS011;4030;52.362;9.206;2023-06-05T14:15:00;2.10;;;1.42;;
7969;SDS011;4030;52.362;9.206;2023-06-05T14:17:26;2.53;;;1.40;;
7969;SDS011;4030;52.362;9.206;2023-06-05T14:19:52;2.03;;;1.40;;
7969;SDS011;4030;52.362;9.206;2023-06-05T14:22:18;3.10;;;1.30;;
7969;SDS011;4030;52.362;9.206;2023-06-05T14:24:44;2.78;;;1.20;;
7969;SDS011;4030;52.362;9.206;2023-06-05T14:27:11;3.08;;;1.40;;
7969;SDS011;4030;52.362;9.206;2023-06-05T14:29:38;2.47;;;1.63;;
7969;SDS011;4030;52.362;9.206;2023-06-05T14:32:04;3.40;;;1.20;;
7969;SDS011;4030;52.362;9.206;2023-06-05T14:34:30;2.38;;;1.30;;
7969;SDS011;4030;52.362;9.206;2023-06-05T14:36:56;2.72;;;1.40;;
7969;SDS011;4030;52.362;9.206;2023-06-05T14:39:22;2.72;;;1.40;;
7969;SDS011;4030;52.362;9.206;2023-06-05T14:41:47;2.45;;;1.30;;
7969;SDS011;4030;52.362;9.206;2023-06-05T14:44:13;2.88;;;1.30;;
7969;SDS011;4030;52.362;9.206;2023-06-05T14:46:39;5.13;;;1.38;;
7969;SDS011;4030;52.362;9.206;2023-06-05T14:49:05;3.60;;;1.67;;
7969;SDS011;4030;52.362;9.206;2023-06-05T14:51:31;2.58;;;1.30;;
7969;SDS011;4030;52.362;9.206;2023-06-05T14:53:56;1.80;;;1.45;;
7969;SDS011;4030;52.362;9.206;2023-06-05T14:56:22;2.70;;;1.23;;
7969;SDS011;4030;52.362;9.206;2023-06-05T14:58:48;3.20;;;1.40;;
7969;SDS011;4030;52.362;9.206;2023-06-05T15:01:13;1.88;;;1.20;;
7969;SDS011;4030;52.362;9.206;2023-06-05T15:03:39;2.53;;;1.38;;
7969;SDS011;4030;52.362;9.206;2023-06-05T15:06:05;3.25;;;1.38;;
7969;SDS011;4030;52.362;9.206;2023-06-05T15:08:31;3.40;;;1.42;;
7969;SDS011;4030;52.362;9.206;2023-06-05T15:10:57;2.53;;;1.30;;
7969;SDS011;4030;52.362;9.206;2023-06-05T15:13:22;2.17;;;1.40;;
7969;SDS011;4030;52.362;9.206;2023-06-05T15:15:49;2.50;;;1.17;;
7969;SDS011;4030;52.362;9.206;2023-06-05T15:18:15;4.10;;;1.65;;
7969;SDS011;4030;52.362;9.206;2023-06-05T15:20:40;3.95;;;1.40;;
7969;SDS011;4030;52.362;9.206;2023-06-05T15:23:06;2.88;;;1.23;;
7969;SDS011;4030;52.362;9.206;2023-06-05T15:25:32;2.50;;;1.20;;
7969;SDS011;4030;52.362;9.206;2023-06-05T15:27:59;1.98;;;1.20;;
7969;SDS011;4030;52.362;9.206;2023-06-05T15:30:24;3.10;;;1.20;;
7969;SDS011;4030;52.362;9.206;2023-06-05T15:32:50;4.20;;;1.50;;
7969;SDS011;4030;52.362;9.206;2023-06-05T15:35:16;3.85;;;1.50;;
7969;SDS011;4030;52.362;9.206;2023-06-05T15:37:42;2.08;;;1.20;;
7969;SDS011;4030;52.362;9.206;2023-06-05T15:40:07;5.40;;;1.40;;